sensor_id;sensor_type;location;lat;lon;timestamp;pressure;altitude;pressure_sealevel;temperature;humidity
55301;BME280;58302;51.446;-2.000;2023-04-27T00:00:27;100931.28;;;3.18;100.00
55301;BME280;58302;51.446;-2.000;2023-04-27T00:02:53;100923.06;;;3.47;100.00
55301;BME280;58302;51.446;-2.000;2023-04-27T00:05:19;100912.09;;;3.75;100.00
55301;BME280;58302;51.446;-2.000;2023-04-27T00:07:45;100904.59;;;3.96;100.00
55301;BME280;58302;51.446;-2.000;2023-04-27T00:10:11;100892.72;;;4.24;100.00
55301;BME280;58302;51.446;-2.000;2023-04-27T00:12:37;100889.53;;;4.47;100.00
55301;BME280;58302;51.446;-2.000;2023-04-27T00:15:05;100865.84;;;4.56;100.00
55301;BME280;58302;51.446;-2.000;2023-04-27T00:17:32;100854.09;;;4.50;100.00
55301;BME280;58302;51.446;-2.000;2023-04-27T00:19:58;100846.50;;;4.40;100.00
55301;BME280;58302;51.446;-2.000;2023-04-27T00:22:25;100838.25;;;4.35;100.00
55301;BME280;58302;51.446;-2.000;2023-04-27T00:24:51;100830.41;;;4.27;100.00
55301;BME280;58302;51.446;-2.000;2023-04-27T00:27:17;100833.13;;;4.20;100.00
55301;BME280;58302;51.446;-2.000;2023-04-27T00:29:43;100828.84;;;4.13;100.00
55301;BME280;58302;51.446;-2.000;2023-04-27T00:32:09;100830.25;;;4.15;100.00
55301;BME280;58302;51.446;-2.000;2023-04-27T00:34:36;100825.66;;;4.22;100.00
55301;BME280;58302;51.446;-2.000;2023-04-27T00:37:03;100817.78;;;4.28;100.00
55301;BME280;58302;51.446;-2.000;2023-04-27T00:39:29;100809.53;;;4.22;100.00
55301;BME280;58302;51.446;-2.000;2023-04-27T00:41:55;100819.72;;;4.14;100.00
55301;BME280;58302;51.446;-2.000;2023-04-27T00:44:25;100815.28;;;4.33;100.00
55301;BME280;58302;51.446;-2.000;2023-04-27T00:46:52;100808.66;;;4.35;100.00
55301;BME280;58302;51.446;-2.000;2023-04-27T00:49:22;100803.50;;;4.27;100.00
55301;BME280;58302;51.446;-2.000;2023-04-27T00:51:48;100803.41;;;4.47;100.00
55301;BME280;58302;51.446;-2.000;2023-04-27T00:54:19;100811.13;;;4.68;100.00
55301;BME280;58302;51.446;-2.000;2023-04-27T00:56:49;100799.16;;;4.64;100.00
55301;BME280;58302;51.446;-2.000;2023-04-27T01:02:13;100805.28;;;4.46;100.00
55301;BME280;58302;51.446;-2.000;2023-04-27T01:04:43;100812.38;;;4.34;100.00
55301;BME280;58302;51.446;-2.000;2023-04-27T01:07:10;100824.16;;;4.33;100.00
55301;BME280;58302;51.446;-2.000;2023-04-27T01:09:36;100805.41;;;4.20;100.00
55301;BME280;58302;51.446;-2.000;2023-04-27T01:12:02;100824.31;;;4.07;100.00
55301;BME280;58302;51.446;-2.000;2023-04-27T01:14:29;100823.03;;;4.09;100.00
55301;BME280;58302;51.446;-2.000;2023-04-27T01:16:55;100827.41;;;4.04;100.00
55301;BME280;58302;51.446;-2.000;2023-04-27T01:19:21;100828.50;;;3.96;100.00
55301;BME280;58302;51.446;-2.000;2023-04-27T01:21:47;100826.19;;;4.00;100.00
55301;BME280;58302;51.446;-2.000;2023-04-27T01:24:13;100824.13;;;4.02;100.00
55301;BME280;58302;51.446;-2.000;2023-04-27T01:26:39;100828.50;;;3.96;100.00
55301;BME280;58302;51.446;-2.000;2023-04-27T01:29:05;100830.50;;;4.01;100.00
55301;BME280;58302;51.446;-2.000;2023-04-27T01:31:31;100833.41;;;4.06;100.00
55301;BME280;58302;51.446;-2.000;2023-04-27T01:33:57;100832.19;;;4.02;100.00
55301;BME280;58302;51.446;-2.000;2023-04-27T01:36:23;100832.63;;;3.92;100.00
55301;BME280;58302;51.446;-2.000;2023-04-27T01:38:49;100832.06;;;3.77;100.00
55301;BME280;58302;51.446;-2.000;2023-04-27T01:41:16;100828.34;;;3.71;100.00
55301;BME280;58302;51.446;-2.000;2023-04-27T01:43:42;100827.88;;;3.87;100.00
55301;BME280;58302;51.446;-2.000;2023-04-27T01:46:10;100814.72;;;4.24;100.00
55301;BME280;58302;51.446;-2.000;2023-04-27T01:48:37;100809.59;;;4.47;100.00
55301;BME280;58302;51.446;-2.000;2023-04-27T01:51:03;100805.41;;;4.58;100.00
55301;BME280;58302;51.446;-2.000;2023-04-27T01:53:29;100797.31;;;4.58;100.00
55301;BME280;58302;51.446;-2.000;2023-04-27T01:55:56;100786.16;;;4.55;100.00
55301;BME280;58302;51.446;-2.000;2023-04-27T01:58:22;100775.56;;;4.60;100.00
55301;BME280;58302;51.446;-2.000;2023-04-27T02:00:48;100780.66;;;4.74;100.00
55301;BME280;58302;51.446;-2.000;2023-04-27T02:03:14;100770.81;;;4.87;100.00
55301;BME280;58302;51.446;-2.000;2023-04-27T02:05:40;100778.00;;;4.93;100.00
55301;BME280;58302;51.446;-2.000;2023-04-27T02:08:06;100782.19;;;4.89;100.00
55301;BME280;58302;51.446;-2.000;2023-04-27T02:10:33;100779.28;;;4.90;100.00
55301;BME280;58302;51.446;-2.000;2023-04-27T02:12:59;100769.41;;;4.84;100.00
55301;BME280;58302;51.446;-2.000;2023-04-27T02:15:25;100770.88;;;4.80;100.00
55301;BME280;58302;51.446;-2.000;2023-04-27T02:17:51;100779.00;;;4.73;100.00
55301;BME280;58302;51.446;-2.000;2023-04-27T02:20:17;100782.94;;;4.71;100.00
55301;BME280;58302;51.446;-2.000;2023-04-27T02:22:43;100782.00;;;4.59;100.00
55301;BME280;58302;51.446;-2.000;2023-04-27T02:25:10;100778.50;;;4.58;100.00
55301;BME280;58302;51.446;-2.000;2023-04-27T02:27:39;100778.88;;;4.62;100.00
55301;BME280;58302;51.446;-2.000;2023-04-27T02:30:06;100776.03;;;4.57;100.00
55301;BME280;58302;51.446;-2.000;2023-04-27T02:32:33;100773.16;;;4.52;100.00
55301;BME280;58302;51.446;-2.000;2023-04-27T02:34:59;100770.63;;;4.57;100.00
55301;BME280;58302;51.446;-2.000;2023-04-27T02:37:27;100760.41;;;4.65;100.00
55301;BME280;58302;51.446;-2.000;2023-04-27T02:39:53;100762.88;;;4.67;100.00
55301;BME280;58302;51.446;-2.000;2023-04-27T02:42:19;100762.63;;;4.75;100.00
55301;BME280;58302;51.446;-2.000;2023-04-27T02:44:46;100758.16;;;4.87;100.00
55301;BME280;58302;51.446;-2.000;2023-04-27T02:47:12;100746.50;;;4.93;100.00
55301;BME280;58302;51.446;-2.000;2023-04-27T02:49:38;100749.81;;;4.95;100.00
55301;BME280;58302;51.446;-2.000;2023-04-27T02:52:05;100749.00;;;4.95;100.00
55301;BME280;58302;51.446;-2.000;2023-04-27T02:54:31;100749.16;;;5.00;100.00
55301;BME280;58302;51.446;-2.000;2023-04-27T02:56:57;100750.81;;;5.01;100.00
55301;BME280;58302;51.446;-2.000;2023-04-27T02:59:25;100737.13;;;5.02;100.00
55301;BME280;58302;51.446;-2.000;2023-04-27T03:01:51;100744.53;;;5.07;100.00
55301;BME280;58302;51.446;-2.000;2023-04-27T03:04:17;100750.59;;;5.21;100.00
55301;BME280;58302;51.446;-2.000;2023-04-27T03:06:43;100746.75;;;5.35;100.00
55301;BME280;58302;51.446;-2.000;2023-04-27T03:09:09;100742.25;;;5.47;100.00
55301;BME280;58302;51.446;-2.000;2023-04-27T03:11:36;100737.47;;;5.49;100.00
55301;BME280;58302;51.446;-2.000;2023-04-27T03:14:02;100736.56;;;5.74;100.00
55301;BME280;58302;51.446;-2.000;2023-04-27T03:16:31;100725.91;;;5.79;100.00
55301;BME280;58302;51.446;-2.000;2023-04-27T03:18:57;100729.09;;;5.88;100.00
55301;BME280;58302;51.446;-2.000;2023-04-27T03:21:23;100732.03;;;5.86;100.00
55301;BME280;58302;51.446;-2.000;2023-04-27T03:23:49;100728.59;;;5.97;100.00
55301;BME280;58302;51.446;-2.000;2023-04-27T03:26:15;100736.25;;;6.00;100.00
55301;BME280;58302;51.446;-2.000;2023-04-27T03:28:41;100736.59;;;6.04;100.00
55301;BME280;58302;51.446;-2.000;2023-04-27T03:31:08;100728.19;;;6.12;100.00
55301;BME280;58302;51.446;-2.000;2023-04-27T03:33:34;100728.25;;;6.24;100.00
55301;BME280;58302;51.446;-2.000;2023-04-27T03:36:01;100728.78;;;6.44;100.00
55301;BME280;58302;51.446;-2.000;2023-04-27T03:38:29;100711.41;;;6.52;100.00
55301;BME280;58302;51.446;-2.000;2023-04-27T03:40:56;100707.31;;;6.49;100.00
55301;BME280;58302;51.446;-2.000;2023-04-27T03:43:23;100702.34;;;6.46;100.00
55301;BME280;58302;51.446;-2.000;2023-04-27T03:45:49;100694.25;;;6.46;100.00
55301;BME280;58302;51.446;-2.000;2023-04-27T03:48:15;100700.38;;;6.53;100.00
55301;BME280;58302;51.446;-2.000;2023-04-27T03:50:42;100692.06;;;6.55;100.00
55301;BME280;58302;51.446;-2.000;2023-04-27T03:53:09;100687.81;;;6.59;100.00
55301;BME280;58302;51.446;-2.000;2023-04-27T03:55:40;100693.38;;;6.76;100.00
55301;BME280;58302;51.446;-2.000;2023-04-27T03:58:07;100684.91;;;6.84;100.00
55301;BME280;58302;51.446;-2.000;2023-04-27T04:00:35;100686.41;;;6.80;100.00
55301;BME280;58302;51.446;-2.000;2023-04-27T04:03:02;100678.81;;;6.77;100.00
55301;BME280;58302;51.446;-2.000;2023-04-27T04:05:28;100680.91;;;6.75;100.00
55301;BME280;58302;51.446;-2.000;2023-04-27T04:07:57;100679.03;;;6.75;100.00
55301;BME280;58302;51.446;-2.000;2023-04-27T04:10:23;100680.44;;;6.78;100.00
55301;BME280;58302;51.446;-2.000;2023-04-27T04:12:50;100677.88;;;6.83;100.00
55301;BME280;58302;51.446;-2.000;2023-04-27T04:15:16;100669.16;;;6.81;100.00
55301;BME280;58302;51.446;-2.000;2023-04-27T04:17:43;100675.28;;;6.76;100.00
55301;BME280;58302;51.446;-2.000;2023-04-27T04:20:10;100681.97;;;6.74;100.00
55301;BME280;58302;51.446;-2.000;2023-04-27T04:22:37;100682.09;;;6.79;100.00
55301;BME280;58302;51.446;-2.000;2023-04-27T04:25:03;100682.66;;;6.81;100.00
55301;BME280;58302;51.446;-2.000;2023-04-27T04:27:30;100677.75;;;6.78;100.00
55301;BME280;58302;51.446;-2.000;2023-04-27T04:29:59;100671.28;;;6.79;100.00
55301;BME280;58302;51.446;-2.000;2023-04-27T04:32:25;100676.09;;;6.77;100.00
55301;BME280;58302;51.446;-2.000;2023-04-27T04:34:54;100673.84;;;6.74;100.00
55301;BME280;58302;51.446;-2.000;2023-04-27T04:37:20;100670.59;;;6.72;100.00
55301;BME280;58302;51.446;-2.000;2023-04-27T04:39:46;100676.44;;;6.69;100.00
55301;BME280;58302;51.446;-2.000;2023-04-27T04:42:12;100675.84;;;6.67;100.00
55301;BME280;58302;51.446;-2.000;2023-04-27T04:44:38;100673.97;;;6.67;100.00
55301;BME280;58302;51.446;-2.000;2023-04-27T04:47:04;100675.75;;;6.62;100.00
55301;BME280;58302;51.446;-2.000;2023-04-27T04:49:31;100665.38;;;6.58;100.00
55301;BME280;58302;51.446;-2.000;2023-04-27T04:51:57;100656.59;;;6.63;100.00
55301;BME280;58302;51.446;-2.000;2023-04-27T04:54:23;100662.81;;;6.64;100.00
55301;BME280;58302;51.446;-2.000;2023-04-27T04:56:50;100651.44;;;6.62;100.00
55301;BME280;58302;51.446;-2.000;2023-04-27T04:59:18;100651.31;;;6.56;100.00
55301;BME280;58302;51.446;-2.000;2023-04-27T05:01:48;100653.31;;;6.61;100.00
55301;BME280;58302;51.446;-2.000;2023-04-27T05:04:21;100654.38;;;6.60;100.00
55301;BME280;58302;51.446;-2.000;2023-04-27T05:07:04;100656.84;;;6.62;100.00
55301;BME280;58302;51.446;-2.000;2023-04-27T05:10:22;100658.72;;;6.61;100.00
55301;BME280;58302;51.446;-2.000;2023-04-27T05:13:08;100661.66;;;6.59;100.00
55301;BME280;58302;51.446;-2.000;2023-04-27T05:16:03;100659.53;;;6.62;100.00
55301;BME280;58302;51.446;-2.000;2023-04-27T05:18:35;100660.94;;;6.64;100.00
55301;BME280;58302;51.446;-2.000;2023-04-27T05:21:14;100658.47;;;6.63;100.00
55301;BME280;58302;51.446;-2.000;2023-04-27T05:23:41;100645.34;;;6.66;100.00
55301;BME280;58302;51.446;-2.000;2023-04-27T05:26:11;100657.78;;;6.67;100.00
55301;BME280;58302;51.446;-2.000;2023-04-27T05:28:37;100654.00;;;6.68;100.00
55301;BME280;58302;51.446;-2.000;2023-04-27T05:31:03;100652.50;;;6.72;100.00
55301;BME280;58302;51.446;-2.000;2023-04-27T05:33:29;100653.88;;;6.75;100.00
55301;BME280;58302;51.446;-2.000;2023-04-27T05:35:55;100658.47;;;6.74;100.00
55301;BME280;58302;51.446;-2.000;2023-04-27T05:38:21;100661.16;;;6.74;100.00
55301;BME280;58302;51.446;-2.000;2023-04-27T05:40:53;100660.13;;;6.75;100.00
55301;BME280;58302;51.446;-2.000;2023-04-27T05:43:19;100671.75;;;6.76;100.00
55301;BME280;58302;51.446;-2.000;2023-04-27T05:45:45;100673.97;;;6.79;100.00
55301;BME280;58302;51.446;-2.000;2023-04-27T05:48:10;100674.91;;;6.84;100.00
55301;BME280;58302;51.446;-2.000;2023-04-27T05:50:36;100664.34;;;6.95;100.00
55301;BME280;58302;51.446;-2.000;2023-04-27T05:53:02;100657.53;;;7.04;100.00
55301;BME280;58302;51.446;-2.000;2023-04-27T05:55:30;100650.81;;;7.06;100.00
55301;BME280;58302;51.446;-2.000;2023-04-27T05:57:56;100646.84;;;7.09;100.00
55301;BME280;58302;51.446;-2.000;2023-04-27T06:00:23;100649.41;;;7.16;100.00
55301;BME280;58302;51.446;-2.000;2023-04-27T06:02:49;100652.56;;;7.24;100.00
55301;BME280;58302;51.446;-2.000;2023-04-27T06:05:16;100646.69;;;7.27;100.00
55301;BME280;58302;51.446;-2.000;2023-04-27T06:07:42;100645.84;;;7.27;100.00
55301;BME280;58302;51.446;-2.000;2023-04-27T06:10:11;100635.25;;;7.37;100.00
55301;BME280;58302;51.446;-2.000;2023-04-27T06:12:37;100629.72;;;7.44;100.00
55301;BME280;58302;51.446;-2.000;2023-04-27T06:15:04;100633.91;;;7.51;100.00
55301;BME280;58302;51.446;-2.000;2023-04-27T06:17:35;100630.38;;;7.51;100.00
55301;BME280;58302;51.446;-2.000;2023-04-27T06:20:01;100634.34;;;7.60;100.00
55301;BME280;58302;51.446;-2.000;2023-04-27T06:22:27;100632.94;;;7.57;100.00
55301;BME280;58302;51.446;-2.000;2023-04-27T06:24:53;100629.41;;;7.57;100.00
55301;BME280;58302;51.446;-2.000;2023-04-27T06:27:18;100623.53;;;7.60;100.00
55301;BME280;58302;51.446;-2.000;2023-04-27T06:29:44;100628.84;;;7.55;100.00
55301;BME280;58302;51.446;-2.000;2023-04-27T06:32:11;100628.81;;;7.66;100.00
55301;BME280;58302;51.446;-2.000;2023-04-27T06:34:38;100631.34;;;7.73;100.00
55301;BME280;58302;51.446;-2.000;2023-04-27T06:37:04;100625.84;;;7.68;100.00
55301;BME280;58302;51.446;-2.000;2023-04-27T06:39:30;100627.34;;;7.76;100.00
55301;BME280;58302;51.446;-2.000;2023-04-27T06:41:56;100618.28;;;7.82;100.00
55301;BME280;58302;51.446;-2.000;2023-04-27T06:44:23;100610.81;;;7.89;100.00
55301;BME280;58302;51.446;-2.000;2023-04-27T06:46:49;100621.25;;;7.97;100.00
55301;BME280;58302;51.446;-2.000;2023-04-27T06:49:18;100610.00;;;8.05;100.00
55301;BME280;58302;51.446;-2.000;2023-04-27T06:51:44;100614.16;;;8.25;100.00
55301;BME280;58302;51.446;-2.000;2023-04-27T06:54:11;100617.19;;;8.45;100.00
55301;BME280;58302;51.446;-2.000;2023-04-27T06:56:37;100618.91;;;8.51;100.00
55301;BME280;58302;51.446;-2.000;2023-04-27T06:59:03;100618.66;;;8.69;100.00
55301;BME280;58302;51.446;-2.000;2023-04-27T07:01:29;100634.00;;;8.81;100.00
55301;BME280;58302;51.446;-2.000;2023-04-27T07:03:55;100646.03;;;8.90;100.00
55301;BME280;58302;51.446;-2.000;2023-04-27T07:06:22;100641.28;;;8.97;100.00
55301;BME280;58302;51.446;-2.000;2023-04-27T07:08:50;100645.06;;;8.96;100.00
55301;BME280;58302;51.446;-2.000;2023-04-27T07:11:16;100645.53;;;8.93;100.00
55301;BME280;58302;51.446;-2.000;2023-04-27T07:13:42;100644.16;;;8.90;100.00
55301;BME280;58302;51.446;-2.000;2023-04-27T07:16:08;100641.69;;;8.89;100.00
55301;BME280;58302;51.446;-2.000;2023-04-27T07:18:34;100636.19;;;8.84;100.00
55301;BME280;58302;51.446;-2.000;2023-04-27T07:21:00;100637.34;;;8.88;100.00
55301;BME280;58302;51.446;-2.000;2023-04-27T07:23:26;100622.59;;;9.01;100.00
55301;BME280;58302;51.446;-2.000;2023-04-27T07:25:52;100617.09;;;9.12;100.00
55301;BME280;58302;51.446;-2.000;2023-04-27T07:28:18;100605.78;;;9.20;100.00
55301;BME280;58302;51.446;-2.000;2023-04-27T07:30:45;100606.47;;;9.33;100.00
55301;BME280;58302;51.446;-2.000;2023-04-27T07:33:11;100598.91;;;9.57;100.00
55301;BME280;58302;51.446;-2.000;2023-04-27T07:35:37;100592.13;;;9.86;100.00
55301;BME280;58302;51.446;-2.000;2023-04-27T07:38:03;100591.97;;;9.98;100.00
55301;BME280;58302;51.446;-2.000;2023-04-27T07:40:29;100591.56;;;10.11;100.00
55301;BME280;58302;51.446;-2.000;2023-04-27T07:42:57;100584.50;;;10.15;100.00
55301;BME280;58302;51.446;-2.000;2023-04-27T07:45:23;100595.41;;;10.20;100.00
55301;BME280;58302;51.446;-2.000;2023-04-27T07:47:57;100601.44;;;10.22;100.00
55301;BME280;58302;51.446;-2.000;2023-04-27T07:50:25;100595.38;;;10.15;100.00
55301;BME280;58302;51.446;-2.000;2023-04-27T07:52:52;100594.28;;;10.16;100.00
55301;BME280;58302;51.446;-2.000;2023-04-27T07:55:20;100608.44;;;10.18;100.00
55301;BME280;58302;51.446;-2.000;2023-04-27T07:57:46;100604.16;;;10.22;100.00
55301;BME280;58302;51.446;-2.000;2023-04-27T08:00:12;100604.50;;;10.31;100.00
55301;BME280;58302;51.446;-2.000;2023-04-27T08:02:38;100604.28;;;10.38;100.00
55301;BME280;58302;51.446;-2.000;2023-04-27T08:05:05;100598.84;;;10.38;100.00
55301;BME280;58302;51.446;-2.000;2023-04-27T08:07:32;100587.50;;;10.46;100.00
55301;BME280;58302;51.446;-2.000;2023-04-27T08:09:58;100588.91;;;10.53;100.00
55301;BME280;58302;51.446;-2.000;2023-04-27T08:12:24;100590.13;;;10.73;100.00
55301;BME280;58302;51.446;-2.000;2023-04-27T08:14:50;100579.09;;;10.95;100.00
55301;BME280;58302;51.446;-2.000;2023-04-27T08:17:18;100591.66;;;11.06;100.00
55301;BME280;58302;51.446;-2.000;2023-04-27T08:19:44;100583.25;;;11.13;100.00
55301;BME280;58302;51.446;-2.000;2023-04-27T08:22:10;100572.88;;;10.99;100.00
55301;BME280;58302;51.446;-2.000;2023-04-27T08:24:36;100583.97;;;10.93;100.00
55301;BME280;58302;51.446;-2.000;2023-04-27T08:27:02;100575.28;;;10.91;100.00
55301;BME280;58302;51.446;-2.000;2023-04-27T08:29:28;100576.00;;;10.76;100.00
55301;BME280;58302;51.446;-2.000;2023-04-27T08:31:56;100572.38;;;10.55;100.00
55301;BME280;58302;51.446;-2.000;2023-04-27T08:34:23;100582.81;;;10.36;100.00
55301;BME280;58302;51.446;-2.000;2023-04-27T08:36:49;100575.16;;;10.28;100.00
55301;BME280;58302;51.446;-2.000;2023-04-27T08:39:15;100586.25;;;10.26;100.00
55301;BME280;58302;51.446;-2.000;2023-04-27T08:41:41;100574.88;;;10.29;100.00
55301;BME280;58302;51.446;-2.000;2023-04-27T08:44:08;100572.72;;;10.32;100.00
55301;BME280;58302;51.446;-2.000;2023-04-27T08:46:35;100579.53;;;10.34;100.00
55301;BME280;58302;51.446;-2.000;2023-04-27T08:49:02;100569.50;;;10.35;100.00
55301;BME280;58302;51.446;-2.000;2023-04-27T08:51:28;100575.69;;;10.30;100.00
55301;BME280;58302;51.446;-2.000;2023-04-27T08:53:55;100568.22;;;10.15;100.00
55301;BME280;58302;51.446;-2.000;2023-04-27T08:56:24;100563.81;;;10.09;100.00
55301;BME280;58302;51.446;-2.000;2023-04-27T08:58:50;100557.03;;;10.07;100.00
55301;BME280;58302;51.446;-2.000;2023-04-27T09:01:17;100553.50;;;10.06;100.00
55301;BME280;58302;51.446;-2.000;2023-04-27T09:03:43;100561.09;;;10.09;100.00
55301;BME280;58302;51.446;-2.000;2023-04-27T09:06:12;100558.97;;;10.16;100.00
55301;BME280;58302;51.446;-2.000;2023-04-27T09:08:46;100552.59;;;10.27;100.00
55301;BME280;58302;51.446;-2.000;2023-04-27T09:11:14;100541.00;;;10.42;100.00
55301;BME280;58302;51.446;-2.000;2023-04-27T09:13:41;100541.88;;;10.53;100.00
55301;BME280;58302;51.446;-2.000;2023-04-27T09:16:11;100538.50;;;10.78;100.00
55301;BME280;58302;51.446;-2.000;2023-04-27T09:18:41;100533.38;;;10.87;100.00
55301;BME280;58302;51.446;-2.000;2023-04-27T09:21:08;100532.81;;;10.85;100.00
55301;BME280;58302;51.446;-2.000;2023-04-27T09:23:36;100535.00;;;10.82;100.00
55301;BME280;58302;51.446;-2.000;2023-04-27T09:26:04;100538.84;;;10.92;100.00
55301;BME280;58302;51.446;-2.000;2023-04-27T09:28:46;100526.94;;;11.08;100.00
55301;BME280;58302;51.446;-2.000;2023-04-27T09:31:12;100530.44;;;11.03;100.00
55301;BME280;58302;51.446;-2.000;2023-04-27T09:33:38;100522.56;;;11.02;100.00
55301;BME280;58302;51.446;-2.000;2023-04-27T09:36:05;100522.84;;;11.05;100.00
55301;BME280;58302;51.446;-2.000;2023-04-27T09:38:31;100524.78;;;11.20;100.00
55301;BME280;58302;51.446;-2.000;2023-04-27T09:40:58;100531.28;;;11.09;100.00
55301;BME280;58302;51.446;-2.000;2023-04-27T09:43:25;100542.22;;;11.24;100.00
55301;BME280;58302;51.446;-2.000;2023-04-27T09:45:53;100542.81;;;11.42;100.00
55301;BME280;58302;51.446;-2.000;2023-04-27T09:48:21;100535.25;;;11.54;100.00
55301;BME280;58302;51.446;-2.000;2023-04-27T09:50:49;100527.03;;;11.39;100.00
55301;BME280;58302;51.446;-2.000;2023-04-27T09:53:28;100528.34;;;11.31;100.00
55301;BME280;58302;51.446;-2.000;2023-04-27T09:56:12;100531.66;;;11.33;100.00
55301;BME280;58302;51.446;-2.000;2023-04-27T09:59:24;100525.38;;;11.43;100.00
55301;BME280;58302;51.446;-2.000;2023-04-27T10:01:56;100528.72;;;11.60;100.00
55301;BME280;58302;51.446;-2.000;2023-04-27T10:04:37;100527.06;;;11.64;100.00
55301;BME280;58302;51.446;-2.000;2023-04-27T10:07:12;100521.06;;;11.52;100.00
55301;BME280;58302;51.446;-2.000;2023-04-27T10:09:46;100518.06;;;11.38;100.00
55301;BME280;58302;51.446;-2.000;2023-04-27T10:14:58;100529.78;;;11.59;100.00
55301;BME280;58302;51.446;-2.000;2023-04-27T10:17:29;100519.47;;;11.76;100.00
55301;BME280;58302;51.446;-2.000;2023-04-27T10:20:00;100517.56;;;11.77;100.00
55301;BME280;58302;51.446;-2.000;2023-04-27T10:22:44;100519.47;;;11.71;100.00
55301;BME280;58302;51.446;-2.000;2023-04-27T10:25:27;100515.13;;;11.96;100.00
55301;BME280;58302;51.446;-2.000;2023-04-27T10:28:01;100513.50;;;12.05;100.00
55301;BME280;58302;51.446;-2.000;2023-04-27T10:30:32;100517.28;;;12.14;100.00
55301;BME280;58302;51.446;-2.000;2023-04-27T10:33:02;100517.81;;;12.42;100.00
55301;BME280;58302;51.446;-2.000;2023-04-27T10:35:37;100516.75;;;12.17;100.00
55301;BME280;58302;51.446;-2.000;2023-04-27T10:38:27;100513.50;;;12.20;100.00
55301;BME280;58302;51.446;-2.000;2023-04-27T10:40:57;100512.13;;;12.28;100.00
55301;BME280;58302;51.446;-2.000;2023-04-27T10:43:28;100505.06;;;12.17;100.00
55301;BME280;58302;51.446;-2.000;2023-04-27T10:46:06;100497.16;;;11.95;100.00
55301;BME280;58302;51.446;-2.000;2023-04-27T10:48:32;100499.59;;;11.91;100.00
55301;BME280;58302;51.446;-2.000;2023-04-27T10:51:00;100494.97;;;11.86;100.00
55301;BME280;58302;51.446;-2.000;2023-04-27T10:53:32;100488.72;;;11.76;100.00
55301;BME280;58302;51.446;-2.000;2023-04-27T10:55:59;100490.34;;;11.67;100.00
55301;BME280;58302;51.446;-2.000;2023-04-27T10:58:25;100490.03;;;11.53;100.00
55301;BME280;58302;51.446;-2.000;2023-04-27T11:00:51;100485.41;;;11.38;100.00
55301;BME280;58302;51.446;-2.000;2023-04-27T11:03:22;100476.66;;;11.31;100.00
55301;BME280;58302;51.446;-2.000;2023-04-27T11:05:57;100470.97;;;11.38;100.00
55301;BME280;58302;51.446;-2.000;2023-04-27T11:08:23;100460.66;;;11.55;100.00
55301;BME280;58302;51.446;-2.000;2023-04-27T11:10:50;100457.41;;;11.89;100.00
55301;BME280;58302;51.446;-2.000;2023-04-27T11:13:19;100455.16;;;12.31;100.00
55301;BME280;58302;51.446;-2.000;2023-04-27T11:18:12;100437.38;;;12.49;100.00
55301;BME280;58302;51.446;-2.000;2023-04-27T11:20:38;100437.16;;;12.35;100.00
55301;BME280;58302;51.446;-2.000;2023-04-27T11:23:04;100440.97;;;12.29;100.00
55301;BME280;58302;51.446;-2.000;2023-04-27T11:25:30;100438.53;;;12.28;100.00
55301;BME280;58302;51.446;-2.000;2023-04-27T11:27:56;100440.47;;;12.17;100.00
55301;BME280;58302;51.446;-2.000;2023-04-27T11:30:23;100430.66;;;12.21;100.00
55301;BME280;58302;51.446;-2.000;2023-04-27T11:32:50;100427.38;;;12.14;100.00
55301;BME280;58302;51.446;-2.000;2023-04-27T11:35:16;100415.69;;;12.08;100.00
55301;BME280;58302;51.446;-2.000;2023-04-27T11:37:43;100416.78;;;12.07;100.00
55301;BME280;58302;51.446;-2.000;2023-04-27T11:40:12;100412.72;;;12.10;100.00
55301;BME280;58302;51.446;-2.000;2023-04-27T11:42:38;100405.56;;;12.24;100.00
55301;BME280;58302;51.446;-2.000;2023-04-27T11:45:10;100400.09;;;12.34;100.00
55301;BME280;58302;51.446;-2.000;2023-04-27T11:47:36;100415.66;;;12.29;100.00
55301;BME280;58302;51.446;-2.000;2023-04-27T11:50:05;100409.41;;;12.18;100.00
55301;BME280;58302;51.446;-2.000;2023-04-27T11:54:59;100399.41;;;11.73;100.00
55301;BME280;58302;51.446;-2.000;2023-04-27T11:57:30;100402.41;;;11.71;100.00
55301;BME280;58302;51.446;-2.000;2023-04-27T11:59:58;100394.78;;;11.58;100.00
55301;BME280;58302;51.446;-2.000;2023-04-27T12:02:28;100387.44;;;11.43;100.00
55301;BME280;58302;51.446;-2.000;2023-04-27T12:04:55;100399.13;;;11.33;100.00
55301;BME280;58302;51.446;-2.000;2023-04-27T12:07:20;100398.59;;;11.21;100.00
55301;BME280;58302;51.446;-2.000;2023-04-27T12:09:46;100387.97;;;11.15;100.00
55301;BME280;58302;51.446;-2.000;2023-04-27T12:12:12;100383.88;;;11.07;100.00
55301;BME280;58302;51.446;-2.000;2023-04-27T12:14:39;100384.94;;;10.96;100.00
55301;BME280;58302;51.446;-2.000;2023-04-27T12:17:06;100383.84;;;10.87;100.00
55301;BME280;58302;51.446;-2.000;2023-04-27T12:19:32;100380.25;;;10.71;100.00
55301;BME280;58302;51.446;-2.000;2023-04-27T12:21:58;100378.00;;;10.47;100.00
55301;BME280;58302;51.446;-2.000;2023-04-27T12:24:25;100392.63;;;10.31;100.00
55301;BME280;58302;51.446;-2.000;2023-04-27T12:26:57;100384.13;;;10.17;100.00
55301;BME280;58302;51.446;-2.000;2023-04-27T12:29:24;100409.00;;;10.04;100.00
55301;BME280;58302;51.446;-2.000;2023-04-27T12:31:51;100398.63;;;9.91;100.00
55301;BME280;58302;51.446;-2.000;2023-04-27T12:34:20;100384.72;;;9.82;100.00
55301;BME280;58302;51.446;-2.000;2023-04-27T12:36:46;100398.59;;;9.86;100.00
55301;BME280;58302;51.446;-2.000;2023-04-27T12:39:20;100394.75;;;9.82;100.00
55301;BME280;58302;51.446;-2.000;2023-04-27T12:41:48;100393.13;;;9.81;100.00
55301;BME280;58302;51.446;-2.000;2023-04-27T12:44:16;100394.50;;;9.83;100.00
55301;BME280;58302;51.446;-2.000;2023-04-27T12:46:43;100410.53;;;9.85;100.00
55301;BME280;58302;51.446;-2.000;2023-04-27T12:49:10;100407.81;;;9.85;100.00